Time;durP1;ratioP1;P1;durP2;ratioP2;P2;SDS_P1;SDS_P2;PMS_P1;PMS_P2;Temp;Humidity;BMP_temperature;BMP_pressure;BME280_temperature;BME280_humidity;BME280_pressure;Samples;Min_cycle;Max_cycle;Signal;HPM_P1;HPM_P2
2021/07/03 00:02:02;;;;;;;16.13;12.90;;;15.30;31.70;;;;;;5042445;28;20639;-76
2021/07/03 00:04:28;;;;;;;17.00;12.60;;;15.30;53.50;;;;;;5042345;28;20528;-75
2021/07/03 00:06:54;;;;;;;18.03;11.97;;;15.30;28.40;;;;;;5043641;28;20287;-76
2021/07/03 00:09:20;;;;;;;22.47;13.10;;;15.10;36.50;;;;;;5039067;28;20595;-76
2021/07/03 00:11:46;;;;;;;17.03;13.00;;;15.00;52.00;;;;;;5042901;28;20234;-76
2021/07/03 00:14:13;;;;;;;18.80;13.47;;;15.10;78.40;;;;;;5039239;28;20515;-75
2021/07/03 00:16:40;;;;;;;16.83;13.33;;;15.10;62.30;;;;;;5038718;28;20530;-76
2021/07/03 00:19:05;;;;;;;17.70;13.43;;;15.00;43.80;;;;;;5036248;28;20495;-75
2021/07/03 00:21:31;;;;;;;14.73;12.83;;;15.10;25.40;;;;;;5038153;28;20577;-75
2021/07/03 00:23:58;;;;;;;19.60;12.70;;;15.00;26.80;;;;;;5045725;28;20230;-76
2021/07/03 00:26:23;;;;;;;16.60;12.50;;;14.80;59.10;;;;;;5042883;28;20307;-75
2021/07/03 00:28:49;;;;;;;20.67;13.30;;;14.80;68.80;;;;;;5045035;28;20543;-76
2021/07/03 00:31:15;;;;;;;14.93;12.03;;;14.70;83.60;;;;;;5041620;28;20193;-75
2021/07/03 00:33:41;;;;;;;20.23;13.03;;;14.70;66.80;;;;;;5041963;28;20448;-76
2021/07/03 00:36:06;;;;;;;18.00;12.33;;;14.60;86.70;;;;;;5044946;28;20184;-75
2021/07/03 00:38:33;;;;;;;20.83;12.70;;;14.70;74.50;;;;;;5039088;28;20183;-75
2021/07/03 00:40:58;;;;;;;20.60;14.87;;;14.70;38.70;;;;;;5038600;28;20287;-76
2021/07/03 00:43:24;;;;;;;18.63;14.10;;;14.60;56.90;;;;;;5049364;28;20569;-75
2021/07/03 00:45:50;;;;;;;21.00;16.10;;;14.60;56.60;;;;;;5042785;28;20721;-77
2021/07/03 00:48:16;;;;;;;22.77;16.10;;;14.70;56.90;;;;;;5039441;28;20210;-75
2021/07/03 00:50:42;;;;;;;20.57;15.50;;;14.80;78.70;;;;;;5032986;28;21010;-76
2021/07/03 00:53:08;;;;;;;17.60;14.57;;;14.90;37.00;;;;;;5040417;28;20454;-75
2021/07/03 00:55:36;;;;;;;19.30;13.80;;;14.90;47.90;;;;;;5049153;28;20504;-75
2021/07/03 00:58:02;;;;;;;26.17;16.40;;;14.80;59.10;;;;;;5045123;28;21330;-76
2021/07/03 01:00:32;;;;;;;18.67;15.30;;;14.80;86.30;;;;;;5032508;28;20290;-76
2021/07/03 01:03:00;;;;;;;21.50;17.00;;;14.80;80.90;;;;;;5040544;28;20474;-75
2021/07/03 01:05:26;;;;;;;26.17;15.87;;;14.80;70.50;;;;;;5039677;28;20957;-75
2021/07/03 01:07:51;;;;;;;23.97;15.87;;;14.80;72.60;;;;;;5041631;28;20673;-75
2021/07/03 01:10:20;;;;;;;21.20;16.23;;;14.70;99.90;;;;;;5037421;28;20563;-76
2021/07/03 01:12:49;;;;;;;19.13;14.90;;;14.70;99.90;;;;;;5045125;28;20494;-76
2021/07/03 01:15:15;;;;;;;19.10;15.23;;;14.70;99.90;;;;;;5036306;28;20468;-75
2021/07/03 01:17:42;;;;;;;22.20;16.60;;;14.70;98.20;;;;;;5042625;28;20446;-76
2021/07/03 01:20:08;;;;;;;22.37;15.33;;;14.70;99.40;;;;;;5047231;28;20450;-75
2021/07/03 01:22:34;;;;;;;19.87;15.87;;;14.80;82.20;;;;;;5047809;28;20479;-75
2021/07/03 01:25:01;;;;;;;19.10;15.60;;;14.70;62.00;;;;;;5043567;28;20472;-75
2021/07/03 01:27:27;;;;;;;21.97;15.60;;;14.60;51.20;;;;;;5039415;28;20353;-75
2021/07/03 01:29:53;;;;;;;20.47;17.13;;;14.60;93.70;;;;;;5045865;28;20468;-75
2021/07/03 01:32:21;;;;;;;19.80;16.13;;;14.50;99.90;;;;;;5033954;28;20973;-76
2021/07/03 01:34:48;;;;;;;27.83;17.80;;;14.60;99.90;;;;;;5043916;28;20559;-76
2021/07/03 01:37:22;;;;;;;21.87;15.60;;;14.50;99.90;;;;;;5044651;28;20500;-75
2021/07/03 01:39:55;;;;;;;20.97;14.63;;;14.50;99.90;;;;;;5041114;28;20488;-76
2021/07/03 01:42:20;;;;;;;18.80;14.50;;;14.50;90.80;;;;;;5045469;28;20445;-75
2021/07/03 01:44:49;;;;;;;19.30;15.33;;;14.40;78.50;;;;;;5044254;28;20469;-75
2021/07/03 01:47:16;;;;;;;17.23;14.63;;;14.30;94.20;;;;;;5041092;28;20236;-75
2021/07/03 01:49:43;;;;;;;20.07;15.37;;;14.20;99.90;;;;;;5042320;28;20445;-75
2021/07/03 01:52:10;;;;;;;19.80;15.27;;;14.30;99.90;;;;;;5045126;28;20835;-75
2021/07/03 01:54:37;;;;;;;21.53;16.27;;;14.30;86.40;;;;;;5044684;28;20507;-75
2021/07/03 01:57:05;;;;;;;19.40;15.83;;;14.40;77.80;;;;;;5041603;28;20532;-75
2021/07/03 01:59:52;;;;;;;20.73;15.97;;;14.40;78.80;;;;;;5039554;28;20470;-75
2021/07/03 02:02:19;;;;;;;20.57;15.77;;;14.40;74.00;;;;;;5043329;28;20438;-75
2021/07/03 02:04:44;;;;;;;21.20;15.70;;;14.30;57.60;;;;;;5036923;28;20475;-75
2021/07/03 02:07:14;;;;;;;17.63;13.80;;;14.30;95.90;;;;;;5034336;28;20265;-75
2021/07/03 02:09:41;;;;;;;20.80;15.00;;;14.40;44.60;;;;;;5049354;28;20446;-75
2021/07/03 02:12:07;;;;;;;20.17;13.70;;;14.50;45.50;;;;;;5037906;28;20434;-75
2021/07/03 02:14:43;;;;;;;19.57;16.00;;;14.50;43.60;;;;;;5039827;28;20266;-76
2021/07/03 02:17:34;;;;;;;27.07;15.27;;;14.40;58.20;;;;;;5040892;28;20446;-76
2021/07/03 02:20:04;;;;;;;23.17;17.03;;;14.50;90.20;;;;;;5033224;28;20604;-75
2021/07/03 02:22:50;;;;;;;19.60;15.23;;;14.60;85.70;;;;;;5049399;28;20438;-75
2021/07/03 02:25:21;;;;;;;20.13;15.00;;;14.60;47.10;;;;;;5045442;28;20465;-75
2021/07/03 02:27:49;;;;;;;21.87;14.83;;;14.60;22.20;;;;;;5047622;28;20471;-75
2021/07/03 02:30:18;;;;;;;19.93;14.63;;;14.60;23.40;;;;;;5035144;28;20969;-75
2021/07/03 02:32:46;;;;;;;20.03;15.03;;;14.60;24.60;;;;;;5036498;28;21097;-75
2021/07/03 02:35:16;;;;;;;20.80;16.57;;;14.60;28.30;;;;;;5042426;28;21108;-75
2021/07/03 02:37:42;;;;;;;26.47;16.27;;;14.50;33.00;;;;;;5040293;28;20731;-75
2021/07/03 02:40:11;;;;;;;20.20;14.47;;;14.40;43.20;;;;;;5042899;28;20440;-75
2021/07/03 02:42:38;;;;;;;16.30;13.47;;;14.20;38.60;;;;;;5036272;28;20441;-75
2021/07/03 02:45:07;;;;;;;20.60;14.27;;;14.20;92.90;;;;;;5027440;28;20477;-75
2021/07/03 02:47:33;;;;;;;17.57;14.40;;;14.20;71.00;;;;;;5036623;28;20529;-75
2021/07/03 02:49:59;;;;;;;16.70;12.47;;;14.20;88.00;;;;;;5038996;28;20465;-75
2021/07/03 02:52:25;;;;;;;15.67;11.30;;;14.00;56.10;;;;;;5041785;28;20873;-75
2021/07/03 02:54:50;;;;;;;16.50;12.40;;;13.90;44.80;;;;;;5030410;28;20185;-75
2021/07/03 02:57:17;;;;;;;18.10;12.90;;;13.80;78.50;;;;;;5048067;28;20206;-75
2021/07/03 02:59:43;;;;;;;19.67;14.77;;;13.90;87.60;;;;;;5044806;28;20414;-75
2021/07/03 03:02:11;;;;;;;16.77;12.47;;;13.70;39.30;;;;;;5032055;28;21097;-75
2021/07/03 03:04:38;;;;;;;22.17;13.10;;;13.70;45.50;;;;;;5057816;28;20526;-75
2021/07/03 03:07:05;;;;;;;17.80;13.67;;;13.60;36.50;;;;;;5046381;28;20467;-75
2021/07/03 03:09:30;;;;;;;19.23;13.87;;;13.40;42.50;;;;;;5038592;28;20452;-75
2021/07/03 03:11:58;;;;;;;18.73;14.40;;;13.40;40.50;;;;;;5035579;28;20445;-75
2021/07/03 03:14:25;;;;;;;20.03;14.53;;;13.40;68.90;;;;;;5034065;28;20446;-75
2021/07/03 03:16:52;;;;;;;20.17;14.30;;;13.50;99.90;;;;;;5052984;28;20469;-75
2021/07/03 03:19:18;;;;;;;21.93;15.83;;;13.50;99.90;;;;;;5035584;28;20885;-75
2021/07/03 03:21:44;;;;;;;20.43;15.30;;;13.60;99.90;;;;;;5042074;28;20445;-75
2021/07/03 03:24:10;;;;;;;20.67;14.83;;;13.60;99.90;;;;;;5043829;28;20607;-75
2021/07/03 03:26:37;;;;;;;18.67;14.37;;;13.70;99.90;;;;;;5037896;28;20475;-75
2021/07/03 03:29:05;;;;;;;28.10;14.93;;;13.90;59.00;;;;;;5035325;28;21176;-75
2021/07/03 03:31:31;;;;;;;17.20;14.47;;;13.90;26.90;;;;;;5039785;28;20457;-75
2021/07/03 03:33:57;;;;;;;26.20;15.63;;;13.90;23.80;;;;;;5043064;28;20208;-75
2021/07/03 03:36:23;;;;;;;21.73;16.00;;;13.90;48.30;;;;;;5048907;28;20448;-75
2021/07/03 03:38:50;;;;;;;25.53;17.30;;;14.00;55.10;;;;;;5038378;28;20831;-75
2021/07/03 03:41:20;;;;;;;23.33;16.67;;;14.00;66.70;;;;;;5045892;28;20443;-75
2021/07/03 03:43:47;;;;;;;20.00;16.37;;;14.10;67.40;;;;;;5043220;28;21024;-75
2021/07/03 03:46:13;;;;;;;26.50;16.97;;;14.10;84.30;;;;;;5062224;28;20522;-75
2021/07/03 03:48:42;;;;;;;24.73;16.33;;;14.10;81.20;;;;;;5041104;28;20433;-75
2021/07/03 03:51:10;;;;;;;27.20;17.63;;;14.10;73.70;;;;;;5042377;28;20440;-75
2021/07/03 03:53:38;;;;;;;22.30;17.90;;;14.10;99.90;;;;;;5043411;28;20441;-75
2021/07/03 03:56:04;;;;;;;28.80;18.13;;;14.10;87.50;;;;;;5046164;28;20449;-75
2021/07/03 03:58:35;;;;;;;22.00;15.90;;;14.10;39.80;;;;;;5039551;28;20495;-74
2021/07/03 04:01:01;;;;;;;25.53;17.50;;;14.10;57.90;;;;;;5030597;28;20458;-74
2021/07/03 04:03:27;;;;;;;18.60;15.23;;;14.00;76.20;;;;;;5034651;28;21039;-75
2021/07/03 04:05:54;;;;;;;23.10;14.60;;;14.00;74.20;;;;;;5043582;28;20719;-75
2021/07/03 04:08:20;;;;;;;17.53;14.00;;;14.00;50.90;;;;;;5044262;28;21014;-75
2021/07/03 04:10:47;;;;;;;18.67;13.67;;;13.90;52.20;;;;;;5045725;28;20432;-74
2021/07/03 04:13:12;;;;;;;18.00;14.23;;;13.90;53.30;;;;;;5035723;28;20981;-75
2021/07/03 04:15:38;;;;;;;19.77;15.03;;;13.90;56.30;;;;;;5037025;28;20202;-74
2021/07/03 04:18:04;;;;;;;20.27;14.57;;;14.00;51.40;;;;;;5036225;28;20183;-74
2021/07/03 04:20:30;;;;;;;19.13;15.77;;;14.00;39.90;;;;;;5036070;28;20456;-74
2021/07/03 04:22:56;;;;;;;24.40;15.80;;;13.90;38.80;;;;;;5043733;28;20690;-74
2021/07/03 04:25:21;;;;;;;21.03;15.43;;;13.90;38.90;;;;;;5042914;28;20207;-74
2021/07/03 04:27:47;;;;;;;18.80;15.00;;;13.90;47.60;;;;;;5037507;28;21190;-74
2021/07/03 04:30:15;;;;;;;24.67;15.20;;;13.90;59.10;;;;;;5041714;28;20213;-74
2021/07/03 04:32:44;;;;;;;20.70;15.83;;;14.00;98.90;;;;;;5037888;28;21853;-74
2021/07/03 04:35:11;;;;;;;20.77;15.60;;;13.90;99.90;;;;;;5039045;28;20431;-74
2021/07/03 04:37:37;;;;;;;20.90;15.40;;;13.90;99.90;;;;;;5049428;28;20804;-75
2021/07/03 04:40:05;;;;;;;24.53;15.57;;;14.00;99.90;;;;;;5042830;28;20460;-74
2021/07/03 04:42:31;;;;;;;22.53;15.37;;;14.00;99.90;;;;;;5042904;28;20495;-74
2021/07/03 04:44:56;;;;;;;20.97;15.93;;;14.00;99.90;;;;;;5043926;28;20461;-74
2021/07/03 04:47:22;;;;;;;21.40;15.50;;;14.10;97.30;;;;;;5043388;28;20491;-74
2021/07/03 04:49:48;;;;;;;20.73;16.83;;;14.20;99.40;;;;;;5038215;28;20189;-74
2021/07/03 04:52:14;;;;;;;19.50;15.70;;;14.30;87.10;;;;;;5039435;28;20191;-74
2021/07/03 04:54:39;;;;;;;22.40;15.80;;;14.30;99.30;;;;;;5038872;28;20266;-74
2021/07/03 04:57:08;;;;;;;18.37;15.40;;;14.40;99.90;;;;;;5035614;28;20314;-75
2021/07/03 04:59:38;;;;;;;18.63;15.57;;;14.50;66.40;;;;;;5045693;28;20472;-75
2021/07/03 05:02:06;;;;;;;22.13;16.70;;;14.50;34.50;;;;;;5038844;28;20473;-74
2021/07/03 05:04:33;;;;;;;19.17;15.60;;;14.50;26.30;;;;;;5044369;28;20471;-74
2021/07/03 05:06:58;;;;;;;23.90;14.80;;;14.50;35.80;;;;;;5037283;28;20512;-75
2021/07/03 05:09:24;;;;;;;18.03;14.33;;;14.50;27.20;;;;;;5044636;28;20444;-74
2021/07/03 05:11:50;;;;;;;22.23;15.40;;;14.60;31.00;;;;;;5044584;28;20279;-74
2021/07/03 05:14:17;;;;;;;17.60;13.87;;;14.60;42.20;;;;;;5046878;28;20445;-75
2021/07/03 05:16:42;;;;;;;19.43;15.90;;;14.70;38.60;;;;;;5034575;28;20252;-74
2021/07/03 05:19:08;;;;;;;30.23;16.30;;;14.80;45.60;;;;;;5032158;28;20532;-74
2021/07/03 05:21:34;;;;;;;18.43;14.70;;;14.90;49.40;;;;;;5044257;28;20197;-74
2021/07/03 05:23:59;;;;;;;18.07;14.60;;;15.10;57.70;;;;;;5040670;28;20664;-74
2021/07/03 05:26:25;;;;;;;19.90;14.50;;;15.20;36.70;;;;;;5037056;28;20495;-75
2021/07/03 05:28:51;;;;;;;19.37;15.20;;;15.30;28.40;;;;;;5038437;28;20217;-74
2021/07/03 05:31:16;;;;;;;16.60;13.73;;;15.40;19.20;;;;;;5036289;28;20849;-74
2021/07/03 05:33:42;;;;;;;19.73;14.20;;;15.50;20.40;;;;;;5040037;28;20284;-75
2021/07/03 05:36:08;;;;;;;15.50;13.90;;;15.60;21.30;;;;;;5031520;28;20356;-75
2021/07/03 05:38:41;;;;;;;16.73;12.47;;;15.70;28.70;;;;;;5026595;28;20659;-75
2021/07/03 05:41:08;;;;;;;19.10;12.90;;;15.90;20.20;;;;;;5040764;28;20472;-74
2021/07/03 05:43:34;;;;;;;18.33;13.83;;;16.00;11.20;;;;;;5039991;28;21144;-75
2021/07/03 05:46:01;;;;;;;17.40;13.27;;;16.00;3.70;;;;;;5043954;28;20483;-75
2021/07/03 05:48:26;;;;;;;16.00;12.13;;;16.20;4.60;;;;;;5048963;28;20484;-75
2021/07/03 05:50:52;;;;;;;16.67;12.50;;;16.30;3.00;;;;;;5049864;28;20539;-75
2021/07/03 05:53:18;;;;;;;17.97;14.77;;;16.40;4.00;;;;;;5046033;28;20195;-75
2021/07/03 05:55:43;;;;;;;14.87;12.90;;;16.40;1.00;;;;;;5051220;28;20182;-75
2021/07/03 05:58:09;;;;;;;21.83;13.30;;;16.40;1.00;;;;;;5043300;28;20443;-75
2021/07/03 06:00:35;;;;;;;15.63;12.90;;;16.40;1.00;;;;;;5036369;28;20633;-75
2021/07/03 06:03:00;;;;;;;15.47;12.77;;;16.40;1.00;;;;;;5035878;28;20198;-74
2021/07/03 06:05:26;;;;;;;18.53;13.30;;;16.30;1.00;;;;;;5032898;28;20670;-74
2021/07/03 06:07:52;;;;;;;15.03;13.27;;;16.40;1.00;;;;;;5036161;28;20278;-74
2021/07/03 06:10:18;;;;;;;16.27;12.30;;;16.40;1.00;;;;;;5033738;28;20191;-74
2021/07/03 06:12:43;;;;;;;18.97;13.67;;;16.40;1.00;;;;;;5028069;28;20269;-74
2021/07/03 06:15:10;;;;;;;17.47;13.00;;;16.40;1.00;;;;;;5035852;28;20183;-74
2021/07/03 06:17:36;;;;;;;17.03;13.07;;;16.40;1.00;;;;;;5037306;28;20198;-74
2021/07/03 06:20:03;;;;;;;16.50;13.07;;;16.50;1.00;;;;;;5044785;28;20455;-74
2021/07/03 06:22:29;;;;;;;14.47;11.53;;;16.60;1.00;;;;;;5045102;28;20451;-74
2021/07/03 06:24:55;;;;;;;17.63;12.97;;;16.70;1.00;;;;;;5046652;28;20936;-74
2021/07/03 06:27:20;;;;;;;14.20;12.00;;;16.80;1.00;;;;;;5050352;28;20753;-74
2021/07/03 06:29:46;;;;;;;17.73;13.13;;;16.90;1.00;;;;;;5041428;28;20182;-74
2021/07/03 06:32:11;;;;;;;13.67;12.20;;;17.10;1.00;;;;;;5034458;28;20209;-74
2021/07/03 06:34:38;;;;;;;15.43;11.77;;;17.20;1.00;;;;;;5043061;28;20190;-74
2021/07/03 06:37:04;;;;;;;16.97;11.93;;;17.40;1.00;;;;;;5045090;28;20533;-74
2021/07/03 06:39:30;;;;;;;22.53;13.30;;;17.60;1.00;;;;;;5043919;28;20456;-74
2021/07/03 06:41:55;;;;;;;14.20;12.53;;;17.70;1.00;;;;;;5032674;28;20454;-74
2021/07/03 06:44:21;;;;;;;16.07;12.03;;;17.90;1.00;;;;;;5046079;28;20820;-74
2021/07/03 06:46:47;;;;;;;15.23;12.70;;;18.10;1.00;;;;;;5040797;28;20202;-74
2021/07/03 06:49:16;;;;;;;17.20;12.80;;;18.10;1.00;;;;;;5029797;28;20601;-74
2021/07/03 06:51:42;;;;;;;20.07;13.37;;;18.30;1.00;;;;;;5044098;28;20210;-74
2021/07/03 06:54:09;;;;;;;18.73;13.73;;;18.40;1.00;;;;;;5049629;28;20566;-75
2021/07/03 06:56:34;;;;;;;17.20;13.37;;;18.50;1.00;;;;;;5051388;28;20846;-74
2021/07/03 06:59:00;;;;;;;17.50;12.17;;;18.60;1.00;;;;;;5051192;28;20471;-75
2021/07/03 07:01:25;;;;;;;15.17;13.33;;;18.70;1.00;;;;;;5040289;28;20689;-74
2021/07/03 07:03:51;;;;;;;15.57;13.77;;;18.80;1.00;;;;;;5051541;28;20238;-74
2021/07/03 07:06:17;;;;;;;14.40;11.87;;;18.90;1.00;;;;;;5050057;28;20678;-74
2021/07/03 07:08:42;;;;;;;13.80;11.17;;;18.90;1.00;;;;;;5042518;28;20191;-75
2021/07/03 07:11:08;;;;;;;17.77;11.40;;;19.10;1.00;;;;;;5054512;28;20189;-74
2021/07/03 07:13:34;;;;;;;22.80;13.07;;;19.20;1.00;;;;;;5057189;28;20263;-74
2021/07/03 07:15:59;;;;;;;12.40;10.77;;;19.30;1.00;;;;;;5049828;28;20209;-74
2021/07/03 07:18:25;;;;;;;17.77;13.30;;;19.20;1.00;;;;;;5048997;28;20195;-74
2021/07/03 07:20:51;;;;;;;14.57;12.37;;;19.10;1.00;;;;;;5049043;28;20193;-74
2021/07/03 07:23:17;;;;;;;15.23;12.80;;;19.30;1.00;;;;;;5054909;28;20327;-75
2021/07/03 07:25:42;;;;;;;15.00;13.40;;;19.40;1.00;;;;;;5043331;28;20521;-75
2021/07/03 07:28:08;;;;;;;15.07;11.10;;;19.50;1.00;;;;;;5053313;28;20624;-74
2021/07/03 07:30:34;;;;;;;14.77;11.53;;;19.60;1.00;;;;;;5053294;28;20233;-75
2021/07/03 07:33:00;;;;;;;15.23;13.10;;;19.70;1.00;;;;;;5052863;28;20369;-74
2021/07/03 07:35:26;;;;;;;14.17;12.67;;;19.80;1.00;;;;;;5034883;28;20782;-75
2021/07/03 07:37:52;;;;;;;13.53;11.10;;;19.90;1.00;;;;;;5053486;28;20577;-74
2021/07/03 07:40:19;;;;;;;14.37;12.87;;;20.00;1.00;;;;;;5049538;28;20210;-74
2021/07/03 07:42:45;;;;;;;14.90;12.90;;;20.20;1.00;;;;;;5048645;28;20189;-74
2021/07/03 07:45:11;;;;;;;17.10;13.80;;;20.20;1.00;;;;;;5046616;28;20465;-74
2021/07/03 07:47:37;;;;;;;13.73;12.30;;;20.30;1.00;;;;;;5039186;28;21004;-75
2021/07/03 07:50:04;;;;;;;15.50;12.10;;;20.40;1.00;;;;;;5037758;28;20519;-74
2021/07/03 07:52:31;;;;;;;16.37;13.00;;;20.60;1.00;;;;;;5050960;28;20183;-75
2021/07/03 07:54:57;;;;;;;14.47;12.03;;;20.80;1.00;;;;;;5046522;28;20809;-74
2021/07/03 07:57:22;;;;;;;15.60;11.80;;;20.90;1.00;;;;;;5045752;28;20449;-74
2021/07/03 07:59:49;;;;;;;16.33;12.07;;;21.00;1.00;;;;;;5061090;28;20183;-75
2021/07/03 08:02:15;;;;;;;18.10;13.27;;;21.20;1.00;;;;;;5048593;28;20337;-75
2021/07/03 08:04:41;;;;;;;15.47;13.20;;;21.30;1.00;;;;;;5049978;28;20473;-74
2021/07/03 08:07:06;;;;;;;16.20;12.53;;;21.30;1.00;;;;;;5045080;28;20186;-74
2021/07/03 08:09:32;;;;;;;15.87;11.80;;;21.40;1.00;;;;;;5053241;28;20476;-74
2021/07/03 08:11:58;;;;;;;17.23;12.13;;;21.30;1.00;;;;;;5052790;28;20243;-74
2021/07/03 08:14:24;;;;;;;15.70;11.00;;;21.30;1.00;;;;;;5044901;28;20228;-74
2021/07/03 08:16:50;;;;;;;14.83;10.20;;;21.40;1.00;;;;;;5047078;28;20973;-74
2021/07/03 08:19:16;;;;;;;12.20;9.17;;;21.40;1.00;;;;;;5055724;28;20199;-75
2021/07/03 08:21:43;;;;;;;12.37;10.43;;;21.40;1.00;;;;;;5061542;28;20442;-75
2021/07/03 08:24:09;;;;;;;11.93;10.73;;;21.60;1.00;;;;;;5049152;28;20464;-75
2021/07/03 08:26:35;;;;;;;16.30;11.77;;;21.60;1.00;;;;;;5051735;28;20536;-75
2021/07/03 08:29:01;;;;;;;11.63;8.83;;;21.70;1.00;;;;;;5048278;28;20449;-74
2021/07/03 08:31:27;;;;;;;12.67;9.70;;;22.00;1.00;;;;;;5053132;28;20505;-75
2021/07/03 08:33:53;;;;;;;15.43;10.30;;;22.00;1.00;;;;;;5042866;28;21066;-75
2021/07/03 08:36:19;;;;;;;11.30;9.67;;;22.10;1.00;;;;;;5045967;28;20519;-74
2021/07/03 08:38:44;;;;;;;16.90;10.07;;;22.10;1.00;;;;;;5047141;28;20469;-75
2021/07/03 08:41:12;;;;;;;12.10;9.70;;;22.30;1.00;;;;;;5052041;28;20191;-76
2021/07/03 08:43:49;;;;;;;12.13;9.47;;;22.50;1.00;;;;;;5050595;28;20221;-75
2021/07/03 08:46:21;;;;;;;12.10;8.60;;;22.40;1.00;;;;;;5049306;28;20510;-75
2021/07/03 08:48:58;;;;;;;10.50;8.20;;;22.50;1.00;;;;;;5051236;28;21133;-74
2021/07/03 08:51:24;;;;;;;9.40;7.60;;;22.70;1.00;;;;;;5045969;28;20476;-75
2021/07/03 08:53:50;;;;;;;10.53;8.90;;;22.80;1.00;;;;;;5048632;28;20460;-75
2021/07/03 08:56:16;;;;;;;14.07;10.33;;;22.80;1.00;;;;;;5055353;28;20209;-75
2021/07/03 08:58:41;;;;;;;16.50;12.70;;;22.80;1.00;;;;;;5049646;28;20721;-75
2021/07/03 09:01:07;;;;;;;12.77;8.37;;;22.90;1.00;;;;;;5049477;28;20178;-75
2021/07/03 09:03:33;;;;;;;7.30;6.60;;;23.00;1.00;;;;;;5046405;28;20621;-75
2021/07/03 09:06:05;;;;;;;9.87;7.33;;;22.70;1.00;;;;;;5046629;28;20536;-75
2021/07/03 09:08:30;;;;;;;10.57;7.27;;;22.40;1.00;;;;;;5048374;28;20881;-75
2021/07/03 09:11:05;;;;;;;12.13;7.80;;;22.30;1.00;;;;;;5050398;28;20460;-75
2021/07/03 09:13:32;;;;;;;9.80;6.27;;;22.40;1.00;;;;;;5054723;28;20228;-75
2021/07/03 09:15:58;;;;;;;10.00;8.20;;;22.60;1.00;;;;;;5051890;28;20433;-75
2021/07/03 09:18:27;;;;;;;8.20;7.17;;;22.70;1.00;;;;;;5048138;28;20997;-75
2021/07/03 09:21:03;;;;;;;10.93;7.03;;;22.80;1.00;;;;;;5048753;28;20208;-75
2021/07/03 09:23:37;;;;;;;8.80;7.07;;;22.90;1.00;;;;;;5046988;28;20507;-75
2021/07/03 09:26:11;;;;;;;8.13;6.73;;;22.90;1.00;;;;;;5054297;28;20460;-75
2021/07/03 09:28:42;;;;;;;8.90;7.37;;;23.00;1.00;;;;;;5046683;28;20582;-75
2021/07/03 09:31:11;;;;;;;9.10;7.60;;;23.10;1.00;;;;;;5054310;28;21638;-75
2021/07/03 09:33:40;;;;;;;9.97;7.03;;;23.20;1.00;;;;;;5045426;28;20475;-75
2021/07/03 09:36:11;;;;;;;11.70;8.07;;;23.30;1.00;;;;;;5051637;28;20854;-75
2021/07/03 09:38:41;;;;;;;10.17;7.27;;;23.40;1.00;;;;;;5030481;28;20991;-75
2021/07/03 09:41:08;;;;;;;7.50;6.70;;;23.40;1.00;;;;;;5033620;28;20457;-75
2021/07/03 09:43:33;;;;;;;8.77;7.40;;;23.50;1.00;;;;;;5043686;28;20450;-75
2021/07/03 09:46:00;;;;;;;10.00;6.63;;;23.30;1.00;;;;;;5014309;28;20498;-75
2021/07/03 09:48:26;;;;;;;9.27;8.10;;;23.20;1.00;;;;;;5043566;28;20202;-75
2021/07/03 09:50:51;;;;;;;13.57;7.80;;;23.30;1.00;;;;;;5042228;28;20811;-75
2021/07/03 09:53:19;;;;;;;8.00;7.03;;;23.40;1.00;;;;;;5042208;28;20653;-75
2021/07/03 09:55:44;;;;;;;8.57;7.63;;;23.50;1.00;;;;;;5042862;28;20395;-75
2021/07/03 09:58:11;;;;;;;7.77;6.90;;;23.50;1.00;;;;;;5031701;28;20469;-75
2021/07/03 10:00:38;;;;;;;7.70;6.43;;;23.70;1.00;;;;;;5033786;28;20187;-75
2021/07/03 10:03:07;;;;;;;7.43;6.73;;;23.70;1.00;;;;;;5040136;28;20818;-74
2021/07/03 10:05:47;;;;;;;8.93;7.00;;;23.80;1.00;;;;;;5032792;28;21067;-75
2021/07/03 10:08:19;;;;;;;7.13;6.30;;;24.00;1.00;;;;;;5028211;28;21295;-76
2021/07/03 10:10:54;;;;;;;8.50;6.63;;;24.10;1.00;;;;;;5024665;28;20441;-76
2021/07/03 10:13:22;;;;;;;6.80;6.03;;;24.20;1.00;;;;;;5034855;28;20485;-75
2021/07/03 10:15:48;;;;;;;8.27;6.50;;;24.30;1.00;;;;;;5015158;28;20468;-75
2021/07/03 10:18:23;;;;;;;7.13;6.07;;;24.60;1.00;;;;;;5037713;28;20449;-75
2021/07/03 10:20:52;;;;;;;7.13;6.43;;;24.60;1.00;;;;;;5018290;28;20817;-75
2021/07/03 10:23:18;;;;;;;7.93;5.87;;;24.50;1.00;;;;;;5032409;28;21020;-75
2021/07/03 10:25:45;;;;;;;7.97;6.17;;;24.50;1.00;;;;;;5040695;28;21300;-75
2021/07/03 10:28:15;;;;;;;8.53;5.67;;;24.50;1.00;;;;;;5032442;28;20450;-75
2021/07/03 10:30:43;;;;;;;8.27;6.10;;;24.40;1.00;;;;;;5029354;28;20450;-75
2021/07/03 10:33:17;;;;;;;6.30;5.47;;;24.20;1.00;;;;;;5028154;28;20465;-75
2021/07/03 10:35:48;;;;;;;7.57;6.00;;;24.30;1.00;;;;;;5027353;28;20588;-75
2021/07/03 10:38:41;;;;;;;7.57;5.83;;;24.20;1.00;;;;;;5042153;28;20491;-75
2021/07/03 10:41:19;;;;;;;7.93;5.40;;;24.10;1.00;;;;;;5043733;28;20457;-75
2021/07/03 10:43:47;;;;;;;8.53;6.50;;;23.80;1.00;;;;;;5047904;28;20537;-75
2021/07/03 10:46:32;;;;;;;7.23;6.30;;;23.70;1.00;;;;;;5050732;28;21040;-75
2021/07/03 10:49:04;;;;;;;7.10;5.43;;;23.70;1.00;;;;;;5043975;28;20486;-75
2021/07/03 10:51:32;;;;;;;6.07;5.47;;;23.60;1.00;;;;;;5022571;28;22140;-75
2021/07/03 10:54:10;;;;;;;7.10;5.17;;;23.60;1.00;;;;;;5034124;28;20461;-75
2021/07/03 10:56:40;;;;;;;8.00;5.63;;;23.60;1.00;;;;;;5038086;28;21018;-75
2021/07/03 10:59:10;;;;;;;16.30;5.40;;;23.70;1.00;;;;;;5036124;28;20448;-76
2021/07/03 11:01:35;;;;;;;6.60;5.37;;;23.90;1.00;;;;;;5026471;28;22466;-75
2021/07/03 11:04:18;;;;;;;6.37;4.60;;;23.80;1.00;;;;;;5029102;28;20470;-75
2021/07/03 11:06:47;;;;;;;7.27;5.33;;;24.00;1.00;;;;;;5026659;28;20450;-75
2021/07/03 11:09:26;;;;;;;6.07;4.90;;;24.30;1.00;;;;;;5041778;28;20442;-75
2021/07/03 11:11:56;;;;;;;6.60;5.07;;;24.40;1.00;;;;;;5044527;28;20444;-75
2021/07/03 11:14:22;;;;;;;6.40;5.80;;;24.60;1.00;;;;;;5042351;28;20966;-75
2021/07/03 11:16:58;;;;;;;6.70;5.57;;;24.80;1.00;;;;;;5046826;28;20485;-76
2021/07/03 11:19:28;;;;;;;8.03;5.40;;;24.70;1.00;;;;;;5025129;28;20471;-75
2021/07/03 11:22:09;;;;;;;9.53;6.37;;;24.30;1.00;;;;;;5030243;28;20453;-76
2021/07/03 11:24:48;;;;;;;5.87;4.87;;;24.40;1.00;;;;;;5039531;28;20651;-76
2021/07/03 11:27:30;;;;;;;5.63;5.13;;;24.50;1.00;;;;;;5033316;28;20905;-76
2021/07/03 11:29:57;;;;;;;4.90;4.40;;;24.90;1.00;;;;;;5034898;28;20476;-75
2021/07/03 11:32:23;;;;;;;5.33;4.00;;;25.00;1.00;;;;;;5035736;28;20510;-76
2021/07/03 11:34:55;;;;;;;8.63;5.23;;;25.10;1.00;;;;;;5029815;28;20927;-76
2021/07/03 11:37:39;;;;;;;5.53;4.67;;;25.00;1.00;;;;;;5055403;28;20462;-75
2021/07/03 11:40:08;;;;;;;5.43;4.63;;;25.10;1.00;;;;;;5043790;28;20445;-75
2021/07/03 11:42:37;;;;;;;6.47;4.10;;;25.10;1.00;;;;;;5041883;28;20457;-75
2021/07/03 11:45:06;;;;;;;5.07;3.90;;;25.00;1.00;;;;;;5044571;28;20508;-75
2021/07/03 11:47:47;;;;;;;7.10;4.30;;;24.80;1.00;;;;;;5048831;28;20467;-75
2021/07/03 11:50:22;;;;;;;5.67;3.80;;;24.60;1.00;;;;;;5046824;28;20443;-75
2021/07/03 11:52:49;;;;;;;7.37;4.07;;;24.90;1.00;;;;;;5038308;28;20565;-75
2021/07/03 11:55:19;;;;;;;8.27;5.33;;;24.90;1.00;;;;;;5042604;28;20463;-76
2021/07/03 11:57:46;;;;;;;5.47;4.87;;;24.70;1.00;;;;;;5047282;28;20441;-75
2021/07/03 12:00:26;;;;;;;7.73;4.43;;;24.80;1.00;;;;;;5049808;28;20458;-75
2021/07/03 12:02:53;;;;;;;5.93;4.60;;;24.70;1.00;;;;;;5049188;28;20461;-75
2021/07/03 12:05:23;;;;;;;5.33;4.67;;;24.60;1.00;;;;;;5051076;28;20857;-75
2021/07/03 12:08:04;;;;;;;6.27;5.10;;;24.60;1.00;;;;;;5042500;28;20855;-76
2021/07/03 12:10:48;;;;;;;6.53;4.23;;;24.70;1.00;;;;;;5045714;28;20910;-75
2021/07/03 12:13:21;;;;;;;5.80;5.20;;;24.60;1.00;;;;;;5039886;28;20524;-76
2021/07/03 12:15:53;;;;;;;5.40;4.50;;;24.50;1.00;;;;;;5031752;28;20834;-75
2021/07/03 12:18:27;;;;;;;7.73;4.53;;;24.70;1.00;;;;;;5035046;28;21007;-75
2021/07/03 12:21:13;;;;;;;4.80;4.27;;;25.00;1.00;;;;;;5037750;28;20449;-75
2021/07/03 12:23:51;;;;;;;5.63;3.97;;;25.30;1.00;;;;;;5017555;28;20448;-76
2021/07/03 12:26:22;;;;;;;4.63;4.23;;;25.50;1.00;;;;;;5037941;28;20449;-75
2021/07/03 12:28:52;;;;;;;4.60;4.10;;;25.60;1.00;;;;;;5027927;28;20446;-75
2021/07/03 12:31:22;;;;;;;5.07;4.57;;;25.70;1.00;;;;;;5044931;28;20538;-76
2021/07/03 12:33:47;;;;;;;4.53;3.97;;;25.90;1.00;;;;;;5037033;28;20936;-77
2021/07/03 12:36:19;;;;;;;5.13;4.17;;;25.80;1.00;;;;;;5034690;28;20448;-75
2021/07/03 12:38:46;;;;;;;5.47;4.27;;;26.00;1.00;;;;;;5039513;28;20731;-76
2021/07/03 12:41:12;;;;;;;4.70;3.83;;;25.90;1.00;;;;;;5052647;28;20448;-75
2021/07/03 12:43:39;;;;;;;4.00;3.57;;;26.00;1.00;;;;;;5036678;28;21413;-76